sensor_id;sensor_type;location;lat;lon;timestamp;P1;durP1;ratioP1;P2;durP2;ratioP2
80307;SDS011;69616;43.522;1.348;2023-06-26T00:01:29;21.95;;;8.73;;
80307;SDS011;69616;43.522;1.348;2023-06-26T00:03:56;21.63;;;8.50;;
80307;SDS011;69616;43.522;1.348;2023-06-26T00:06:22;18.50;;;8.07;;
80307;SDS011;69616;43.522;1.348;2023-06-26T00:08:49;17.88;;;8.35;;
80307;SDS011;69616;43.522;1.348;2023-06-26T00:11:15;20.63;;;9.10;;
80307;SDS011;69616;43.522;1.348;2023-06-26T00:13:41;21.40;;;8.30;;
80307;SDS011;69616;43.522;1.348;2023-06-26T00:16:06;18.70;;;8.45;;
80307;SDS011;69616;43.522;1.348;2023-06-26T00:18:32;19.43;;;8.07;;
80307;SDS011;69616;43.522;1.348;2023-06-26T00:20:57;17.50;;;7.77;;
80307;SDS011;69616;43.522;1.348;2023-06-26T00:23:23;15.80;;;8.00;;
80307;SDS011;69616;43.522;1.348;2023-06-26T00:25:48;18.73;;;8.23;;
80307;SDS011;69616;43.522;1.348;2023-06-26T00:28:14;17.37;;;8.10;;
80307;SDS011;69616;43.522;1.348;2023-06-26T00:30:39;20.23;;;7.83;;
80307;SDS011;69616;43.522;1.348;2023-06-26T00:33:04;17.00;;;7.88;;
80307;SDS011;69616;43.522;1.348;2023-06-26T00:35:30;16.93;;;7.80;;
80307;SDS011;69616;43.522;1.348;2023-06-26T00:37:55;15.77;;;7.93;;
80307;SDS011;69616;43.522;1.348;2023-06-26T00:40:20;19.37;;;7.73;;
80307;SDS011;69616;43.522;1.348;2023-06-26T00:42:46;17.30;;;7.95;;
80307;SDS011;69616;43.522;1.348;2023-06-26T00:45:11;19.37;;;7.43;;
80307;SDS011;69616;43.522;1.348;2023-06-26T00:47:37;17.83;;;7.83;;
80307;SDS011;69616;43.522;1.348;2023-06-26T00:50:03;15.30;;;7.60;;
80307;SDS011;69616;43.522;1.348;2023-06-26T00:52:29;15.00;;;7.78;;
80307;SDS011;69616;43.522;1.348;2023-06-26T00:54:55;16.60;;;7.77;;
80307;SDS011;69616;43.522;1.348;2023-06-26T00:57:21;16.95;;;7.75;;
80307;SDS011;69616;43.522;1.348;2023-06-26T00:59:46;16.10;;;7.17;;
80307;SDS011;69616;43.522;1.348;2023-06-26T01:02:13;18.65;;;7.88;;
80307;SDS011;69616;43.522;1.348;2023-06-26T01:04:44;16.10;;;7.78;;
80307;SDS011;69616;43.522;1.348;2023-06-26T01:07:14;18.63;;;8.37;;
80307;SDS011;69616;43.522;1.348;2023-06-26T01:09:44;15.93;;;8.07;;
80307;SDS011;69616;43.522;1.348;2023-06-26T01:12:11;16.65;;;7.65;;
80307;SDS011;69616;43.522;1.348;2023-06-26T01:14:36;17.20;;;7.83;;
80307;SDS011;69616;43.522;1.348;2023-06-26T01:17:02;17.60;;;8.85;;
80307;SDS011;69616;43.522;1.348;2023-06-26T01:19:29;15.88;;;8.20;;
80307;SDS011;69616;43.522;1.348;2023-06-26T01:22:04;16.77;;;7.63;;
80307;SDS011;69616;43.522;1.348;2023-06-26T01:28:03;18.10;;;8.73;;
80307;SDS011;69616;43.522;1.348;2023-06-26T01:30:30;19.67;;;8.02;;
80307;SDS011;69616;43.522;1.348;2023-06-26T01:32:57;15.43;;;7.97;;
80307;SDS011;69616;43.522;1.348;2023-06-26T01:35:24;15.43;;;7.80;;
80307;SDS011;69616;43.522;1.348;2023-06-26T01:37:50;16.98;;;8.10;;
80307;SDS011;69616;43.522;1.348;2023-06-26T01:40:15;15.73;;;8.07;;
80307;SDS011;69616;43.522;1.348;2023-06-26T01:42:41;17.35;;;8.32;;
80307;SDS011;69616;43.522;1.348;2023-06-26T01:45:14;19.70;;;7.97;;
80307;SDS011;69616;43.522;1.348;2023-06-26T01:47:46;18.38;;;7.97;;
80307;SDS011;69616;43.522;1.348;2023-06-26T01:50:22;17.65;;;8.32;;
80307;SDS011;69616;43.522;1.348;2023-06-26T01:53:04;19.08;;;7.88;;
80307;SDS011;69616;43.522;1.348;2023-06-26T01:55:55;17.97;;;8.10;;
80307;SDS011;69616;43.522;1.348;2023-06-26T01:58:26;18.30;;;8.63;;
80307;SDS011;69616;43.522;1.348;2023-06-26T02:00:53;20.20;;;8.10;;
80307;SDS011;69616;43.522;1.348;2023-06-26T02:03:19;17.73;;;8.18;;
80307;SDS011;69616;43.522;1.348;2023-06-26T02:05:45;19.53;;;8.40;;
80307;SDS011;69616;43.522;1.348;2023-06-26T02:08:13;18.48;;;8.52;;
80307;SDS011;69616;43.522;1.348;2023-06-26T02:10:39;18.38;;;7.90;;
80307;SDS011;69616;43.522;1.348;2023-06-26T02:13:04;17.10;;;8.33;;
80307;SDS011;69616;43.522;1.348;2023-06-26T02:15:29;19.77;;;7.97;;
80307;SDS011;69616;43.522;1.348;2023-06-26T02:17:55;19.40;;;7.93;;
80307;SDS011;69616;43.522;1.348;2023-06-26T02:20:20;20.17;;;8.57;;
80307;SDS011;69616;43.522;1.348;2023-06-26T02:22:46;19.17;;;7.83;;
80307;SDS011;69616;43.522;1.348;2023-06-26T02:25:11;14.82;;;7.50;;
80307;SDS011;69616;43.522;1.348;2023-06-26T02:27:37;18.73;;;7.30;;
80307;SDS011;69616;43.522;1.348;2023-06-26T02:30:03;20.35;;;8.20;;
80307;SDS011;69616;43.522;1.348;2023-06-26T02:32:29;16.75;;;8.10;;
80307;SDS011;69616;43.522;1.348;2023-06-26T02:34:54;15.97;;;8.63;;
80307;SDS011;69616;43.522;1.348;2023-06-26T02:37:20;17.60;;;8.20;;
80307;SDS011;69616;43.522;1.348;2023-06-26T02:39:45;18.53;;;7.80;;
80307;SDS011;69616;43.522;1.348;2023-06-26T02:42:11;18.38;;;8.65;;
80307;SDS011;69616;43.522;1.348;2023-06-26T02:44:36;19.50;;;8.63;;
80307;SDS011;69616;43.522;1.348;2023-06-26T02:47:02;16.48;;;7.72;;
80307;SDS011;69616;43.522;1.348;2023-06-26T02:49:28;19.23;;;8.30;;
80307;SDS011;69616;43.522;1.348;2023-06-26T02:51:53;18.55;;;8.25;;
80307;SDS011;69616;43.522;1.348;2023-06-26T02:54:18;18.50;;;8.53;;
80307;SDS011;69616;43.522;1.348;2023-06-26T02:56:44;17.73;;;7.70;;
80307;SDS011;69616;43.522;1.348;2023-06-26T02:59:10;21.80;;;9.53;;
80307;SDS011;69616;43.522;1.348;2023-06-26T03:01:35;20.23;;;8.17;;
80307;SDS011;69616;43.522;1.348;2023-06-26T03:04:01;23.37;;;9.47;;
80307;SDS011;69616;43.522;1.348;2023-06-26T03:06:27;20.67;;;9.30;;
80307;SDS011;69616;43.522;1.348;2023-06-26T03:08:52;17.20;;;8.35;;
80307;SDS011;69616;43.522;1.348;2023-06-26T03:11:18;15.33;;;8.60;;
80307;SDS011;69616;43.522;1.348;2023-06-26T03:13:44;21.15;;;8.77;;
80307;SDS011;69616;43.522;1.348;2023-06-26T03:16:09;18.83;;;8.50;;
80307;SDS011;69616;43.522;1.348;2023-06-26T03:18:35;20.43;;;8.30;;
80307;SDS011;69616;43.522;1.348;2023-06-26T03:21:00;20.05;;;9.05;;
80307;SDS011;69616;43.522;1.348;2023-06-26T03:23:26;21.90;;;8.90;;
80307;SDS011;69616;43.522;1.348;2023-06-26T03:25:51;20.67;;;9.10;;
80307;SDS011;69616;43.522;1.348;2023-06-26T03:28:18;20.00;;;9.52;;
80307;SDS011;69616;43.522;1.348;2023-06-26T03:30:43;21.90;;;8.93;;
80307;SDS011;69616;43.522;1.348;2023-06-26T03:33:09;19.80;;;9.15;;
80307;SDS011;69616;43.522;1.348;2023-06-26T03:35:34;19.27;;;9.33;;
80307;SDS011;69616;43.522;1.348;2023-06-26T03:38:00;20.67;;;10.00;;
80307;SDS011;69616;43.522;1.348;2023-06-26T03:40:26;18.05;;;9.40;;
80307;SDS011;69616;43.522;1.348;2023-06-26T03:42:52;18.70;;;8.17;;
80307;SDS011;69616;43.522;1.348;2023-06-26T03:45:17;18.80;;;8.70;;
80307;SDS011;69616;43.522;1.348;2023-06-26T03:47:44;18.30;;;8.90;;
80307;SDS011;69616;43.522;1.348;2023-06-26T03:50:12;21.80;;;9.33;;
80307;SDS011;69616;43.522;1.348;2023-06-26T03:52:37;22.15;;;8.75;;
80307;SDS011;69616;43.522;1.348;2023-06-26T03:55:03;19.53;;;9.50;;
80307;SDS011;69616;43.522;1.348;2023-06-26T03:57:28;18.90;;;8.93;;
80307;SDS011;69616;43.522;1.348;2023-06-26T03:59:54;18.63;;;8.43;;
80307;SDS011;69616;43.522;1.348;2023-06-26T04:02:19;14.67;;;8.23;;
80307;SDS011;69616;43.522;1.348;2023-06-26T04:04:44;17.20;;;7.83;;
80307;SDS011;69616;43.522;1.348;2023-06-26T04:07:10;18.13;;;8.63;;
80307;SDS011;69616;43.522;1.348;2023-06-26T04:09:35;16.05;;;7.70;;
80307;SDS011;69616;43.522;1.348;2023-06-26T04:12:01;17.27;;;7.57;;
80307;SDS011;69616;43.522;1.348;2023-06-26T04:14:26;15.83;;;7.77;;
80307;SDS011;69616;43.522;1.348;2023-06-26T04:16:51;21.67;;;8.77;;
80307;SDS011;69616;43.522;1.348;2023-06-26T04:19:17;19.73;;;8.40;;
80307;SDS011;69616;43.522;1.348;2023-06-26T04:21:43;18.67;;;7.63;;
80307;SDS011;69616;43.522;1.348;2023-06-26T04:24:08;16.70;;;7.88;;
80307;SDS011;69616;43.522;1.348;2023-06-26T04:26:34;17.00;;;8.13;;
80307;SDS011;69616;43.522;1.348;2023-06-26T04:28:59;20.57;;;8.07;;
80307;SDS011;69616;43.522;1.348;2023-06-26T04:31:25;18.20;;;7.47;;
80307;SDS011;69616;43.522;1.348;2023-06-26T04:33:51;19.13;;;8.00;;
80307;SDS011;69616;43.522;1.348;2023-06-26T04:36:18;15.13;;;7.82;;
80307;SDS011;69616;43.522;1.348;2023-06-26T04:38:43;19.10;;;7.97;;
80307;SDS011;69616;43.522;1.348;2023-06-26T04:41:08;16.17;;;7.73;;
80307;SDS011;69616;43.522;1.348;2023-06-26T04:43:34;16.30;;;7.88;;
80307;SDS011;69616;43.522;1.348;2023-06-26T04:45:59;16.53;;;8.13;;
80307;SDS011;69616;43.522;1.348;2023-06-26T04:48:25;20.13;;;8.50;;
80307;SDS011;69616;43.522;1.348;2023-06-26T04:50:53;19.55;;;8.65;;
80307;SDS011;69616;43.522;1.348;2023-06-26T04:53:22;18.58;;;7.97;;
80307;SDS011;69616;43.522;1.348;2023-06-26T04:55:51;18.20;;;7.93;;
80307;SDS011;69616;43.522;1.348;2023-06-26T04:58:18;19.37;;;7.87;;
80307;SDS011;69616;43.522;1.348;2023-06-26T05:00:44;16.63;;;7.97;;
80307;SDS011;69616;43.522;1.348;2023-06-26T05:03:10;19.90;;;8.27;;
80307;SDS011;69616;43.522;1.348;2023-06-26T05:05:37;17.88;;;8.80;;
80307;SDS011;69616;43.522;1.348;2023-06-26T05:08:15;20.87;;;8.23;;
80307;SDS011;69616;43.522;1.348;2023-06-26T05:10:45;19.40;;;8.43;;
80307;SDS011;69616;43.522;1.348;2023-06-26T05:13:11;18.90;;;8.05;;
80307;SDS011;69616;43.522;1.348;2023-06-26T05:15:40;13.47;;;6.90;;
80307;SDS011;69616;43.522;1.348;2023-06-26T05:18:06;15.60;;;7.05;;
80307;SDS011;69616;43.522;1.348;2023-06-26T05:20:31;12.37;;;5.93;;
80307;SDS011;69616;43.522;1.348;2023-06-26T05:22:57;13.80;;;5.85;;
80307;SDS011;69616;43.522;1.348;2023-06-26T05:25:23;17.83;;;6.30;;
80307;SDS011;69616;43.522;1.348;2023-06-26T05:27:49;12.20;;;5.72;;
80307;SDS011;69616;43.522;1.348;2023-06-26T05:30:15;11.27;;;5.80;;
80307;SDS011;69616;43.522;1.348;2023-06-26T05:32:41;12.90;;;6.25;;
80307;SDS011;69616;43.522;1.348;2023-06-26T05:35:11;14.35;;;5.80;;
80307;SDS011;69616;43.522;1.348;2023-06-26T05:37:38;10.90;;;5.50;;
80307;SDS011;69616;43.522;1.348;2023-06-26T05:40:05;13.23;;;5.75;;
80307;SDS011;69616;43.522;1.348;2023-06-26T05:42:30;11.70;;;5.18;;
80307;SDS011;69616;43.522;1.348;2023-06-26T05:44:56;11.93;;;5.40;;
80307;SDS011;69616;43.522;1.348;2023-06-26T05:47:22;10.98;;;5.18;;
80307;SDS011;69616;43.522;1.348;2023-06-26T05:49:48;14.33;;;5.20;;
80307;SDS011;69616;43.522;1.348;2023-06-26T05:52:14;13.90;;;5.20;;
80307;SDS011;69616;43.522;1.348;2023-06-26T05:54:39;10.70;;;5.03;;
80307;SDS011;69616;43.522;1.348;2023-06-26T05:57:05;12.07;;;5.13;;
80307;SDS011;69616;43.522;1.348;2023-06-26T05:59:31;12.23;;;5.33;;
80307;SDS011;69616;43.522;1.348;2023-06-26T06:01:57;14.37;;;5.60;;
80307;SDS011;69616;43.522;1.348;2023-06-26T06:04:23;10.65;;;5.32;;
80307;SDS011;69616;43.522;1.348;2023-06-26T06:06:48;11.17;;;4.87;;
80307;SDS011;69616;43.522;1.348;2023-06-26T06:09:14;10.77;;;5.40;;
80307;SDS011;69616;43.522;1.348;2023-06-26T06:11:39;12.15;;;5.75;;
80307;SDS011;69616;43.522;1.348;2023-06-26T06:14:04;18.00;;;5.53;;
80307;SDS011;69616;43.522;1.348;2023-06-26T06:16:30;11.53;;;5.43;;
80307;SDS011;69616;43.522;1.348;2023-06-26T06:18:55;13.43;;;5.87;;
80307;SDS011;69616;43.522;1.348;2023-06-26T06:21:21;11.63;;;5.17;;
80307;SDS011;69616;43.522;1.348;2023-06-26T06:23:46;11.30;;;5.43;;
80307;SDS011;69616;43.522;1.348;2023-06-26T06:26:12;12.87;;;5.77;;
80307;SDS011;69616;43.522;1.348;2023-06-26T06:28:38;10.70;;;5.40;;
80307;SDS011;69616;43.522;1.348;2023-06-26T06:31:03;13.18;;;5.30;;
80307;SDS011;69616;43.522;1.348;2023-06-26T06:33:29;9.70;;;5.13;;
80307;SDS011;69616;43.522;1.348;2023-06-26T06:35:54;14.47;;;6.10;;
80307;SDS011;69616;43.522;1.348;2023-06-26T06:38:19;12.38;;;5.80;;
80307;SDS011;69616;43.522;1.348;2023-06-26T06:40:45;11.27;;;5.53;;
80307;SDS011;69616;43.522;1.348;2023-06-26T06:43:10;13.87;;;6.40;;
80307;SDS011;69616;43.522;1.348;2023-06-26T06:45:36;16.13;;;5.20;;
80307;SDS011;69616;43.522;1.348;2023-06-26T06:48:03;13.48;;;5.72;;
80307;SDS011;69616;43.522;1.348;2023-06-26T06:50:28;16.38;;;5.60;;
80307;SDS011;69616;43.522;1.348;2023-06-26T06:52:54;11.10;;;5.57;;
80307;SDS011;69616;43.522;1.348;2023-06-26T06:55:19;15.43;;;5.87;;
80307;SDS011;69616;43.522;1.348;2023-06-26T06:57:45;13.27;;;5.13;;
80307;SDS011;69616;43.522;1.348;2023-06-26T07:00:11;14.20;;;5.35;;
80307;SDS011;69616;43.522;1.348;2023-06-26T07:02:39;10.25;;;4.88;;
80307;SDS011;69616;43.522;1.348;2023-06-26T07:05:06;12.15;;;5.35;;
80307;SDS011;69616;43.522;1.348;2023-06-26T07:07:33;11.80;;;4.70;;
80307;SDS011;69616;43.522;1.348;2023-06-26T07:10:00;13.10;;;5.63;;
80307;SDS011;69616;43.522;1.348;2023-06-26T07:12:27;13.25;;;4.53;;
80307;SDS011;69616;43.522;1.348;2023-06-26T07:14:53;11.45;;;4.53;;
80307;SDS011;69616;43.522;1.348;2023-06-26T07:17:20;11.63;;;4.80;;
80307;SDS011;69616;43.522;1.348;2023-06-26T07:19:46;11.40;;;5.20;;
80307;SDS011;69616;43.522;1.348;2023-06-26T07:22:11;12.27;;;4.65;;
80307;SDS011;69616;43.522;1.348;2023-06-26T07:24:37;14.53;;;5.10;;
80307;SDS011;69616;43.522;1.348;2023-06-26T07:27:02;11.60;;;4.23;;
80307;SDS011;69616;43.522;1.348;2023-06-26T07:29:28;12.65;;;4.57;;
80307;SDS011;69616;43.522;1.348;2023-06-26T07:31:53;10.53;;;4.67;;
80307;SDS011;69616;43.522;1.348;2023-06-26T07:34:19;11.13;;;4.43;;
80307;SDS011;69616;43.522;1.348;2023-06-26T07:36:44;13.20;;;4.83;;
80307;SDS011;69616;43.522;1.348;2023-06-26T07:39:10;13.70;;;4.85;;
80307;SDS011;69616;43.522;1.348;2023-06-26T07:41:35;14.07;;;4.70;;
80307;SDS011;69616;43.522;1.348;2023-06-26T07:44:01;17.53;;;4.83;;
80307;SDS011;69616;43.522;1.348;2023-06-26T07:46:26;13.17;;;4.77;;
80307;SDS011;69616;43.522;1.348;2023-06-26T07:48:51;16.23;;;4.60;;
80307;SDS011;69616;43.522;1.348;2023-06-26T07:51:17;11.30;;;4.33;;
80307;SDS011;69616;43.522;1.348;2023-06-26T07:53:42;11.40;;;4.47;;
80307;SDS011;69616;43.522;1.348;2023-06-26T07:56:08;13.88;;;5.13;;
80307;SDS011;69616;43.522;1.348;2023-06-26T07:58:33;13.53;;;4.63;;
80307;SDS011;69616;43.522;1.348;2023-06-26T08:00:59;12.70;;;4.90;;
80307;SDS011;69616;43.522;1.348;2023-06-26T08:03:24;11.00;;;4.33;;
80307;SDS011;69616;43.522;1.348;2023-06-26T08:05:49;11.23;;;4.40;;
80307;SDS011;69616;43.522;1.348;2023-06-26T08:08:15;15.35;;;4.70;;
80307;SDS011;69616;43.522;1.348;2023-06-26T08:10:40;9.20;;;4.23;;
80307;SDS011;69616;43.522;1.348;2023-06-26T08:13:06;12.03;;;4.23;;
80307;SDS011;69616;43.522;1.348;2023-06-26T08:15:31;10.27;;;4.57;;
80307;SDS011;69616;43.522;1.348;2023-06-26T08:17:56;12.20;;;4.20;;
80307;SDS011;69616;43.522;1.348;2023-06-26T08:20:22;11.70;;;4.43;;
80307;SDS011;69616;43.522;1.348;2023-06-26T08:22:47;14.43;;;4.40;;
80307;SDS011;69616;43.522;1.348;2023-06-26T08:25:15;10.13;;;3.92;;
80307;SDS011;69616;43.522;1.348;2023-06-26T08:27:41;15.67;;;4.90;;
80307;SDS011;69616;43.522;1.348;2023-06-26T08:30:06;8.93;;;4.05;;
80307;SDS011;69616;43.522;1.348;2023-06-26T08:32:32;10.00;;;4.03;;
80307;SDS011;69616;43.522;1.348;2023-06-26T08:34:57;10.63;;;4.30;;
80307;SDS011;69616;43.522;1.348;2023-06-26T08:37:23;9.80;;;3.97;;
80307;SDS011;69616;43.522;1.348;2023-06-26T08:39:48;11.07;;;4.18;;
80307;SDS011;69616;43.522;1.348;2023-06-26T08:42:14;13.70;;;4.00;;
80307;SDS011;69616;43.522;1.348;2023-06-26T08:44:39;13.82;;;4.40;;
80307;SDS011;69616;43.522;1.348;2023-06-26T08:47:05;11.63;;;4.10;;
80307;SDS011;69616;43.522;1.348;2023-06-26T08:55:02;13.43;;;4.03;;
80307;SDS011;69616;43.522;1.348;2023-06-26T08:57:34;10.45;;;3.95;;
80307;SDS011;69616;43.522;1.348;2023-06-26T09:00:02;11.30;;;4.20;;
80307;SDS011;69616;43.522;1.348;2023-06-26T09:02:28;10.65;;;4.35;;
80307;SDS011;69616;43.522;1.348;2023-06-26T09:04:53;10.73;;;4.15;;
80307;SDS011;69616;43.522;1.348;2023-06-26T09:07:19;11.43;;;4.30;;
80307;SDS011;69616;43.522;1.348;2023-06-26T09:09:44;12.47;;;4.83;;
80307;SDS011;69616;43.522;1.348;2023-06-26T09:12:10;10.93;;;4.22;;
80307;SDS011;69616;43.522;1.348;2023-06-26T09:14:36;12.00;;;4.20;;
80307;SDS011;69616;43.522;1.348;2023-06-26T09:17:03;13.30;;;4.38;;
80307;SDS011;69616;43.522;1.348;2023-06-26T09:19:28;10.75;;;4.10;;
80307;SDS011;69616;43.522;1.348;2023-06-26T09:21:54;10.40;;;3.83;;
80307;SDS011;69616;43.522;1.348;2023-06-26T09:24:20;13.40;;;4.00;;
80307;SDS011;69616;43.522;1.348;2023-06-26T09:26:46;8.47;;;3.60;;
80307;SDS011;69616;43.522;1.348;2023-06-26T09:29:12;9.55;;;3.60;;
80307;SDS011;69616;43.522;1.348;2023-06-26T09:31:39;11.85;;;3.78;;
80307;SDS011;69616;43.522;1.348;2023-06-26T09:34:05;10.25;;;3.95;;
80307;SDS011;69616;43.522;1.348;2023-06-26T09:36:31;10.00;;;3.90;;
80307;SDS011;69616;43.522;1.348;2023-06-26T09:39:01;12.93;;;4.90;;
80307;SDS011;69616;43.522;1.348;2023-06-26T09:41:27;13.38;;;4.07;;
80307;SDS011;69616;43.522;1.348;2023-06-26T09:43:53;10.63;;;4.13;;
80307;SDS011;69616;43.522;1.348;2023-06-26T09:46:26;12.20;;;4.28;;
80307;SDS011;69616;43.522;1.348;2023-06-26T09:49:00;10.65;;;4.10;;
80307;SDS011;69616;43.522;1.348;2023-06-26T09:51:33;10.10;;;4.03;;
80307;SDS011;69616;43.522;1.348;2023-06-26T09:54:00;12.93;;;4.60;;
80307;SDS011;69616;43.522;1.348;2023-06-26T09:56:26;13.50;;;5.03;;
80307;SDS011;69616;43.522;1.348;2023-06-26T09:58:53;8.85;;;4.07;;
80307;SDS011;69616;43.522;1.348;2023-06-26T10:01:21;11.30;;;4.75;;
80307;SDS011;69616;43.522;1.348;2023-06-26T10:03:46;11.73;;;4.40;;
80307;SDS011;69616;43.522;1.348;2023-06-26T10:06:12;12.07;;;4.63;;
80307;SDS011;69616;43.522;1.348;2023-06-26T10:08:39;13.88;;;5.00;;
80307;SDS011;69616;43.522;1.348;2023-06-26T10:11:06;12.10;;;4.72;;
80307;SDS011;69616;43.522;1.348;2023-06-26T10:13:38;12.68;;;5.20;;
80307;SDS011;69616;43.522;1.348;2023-06-26T10:16:06;12.60;;;5.03;;
80307;SDS011;69616;43.522;1.348;2023-06-26T10:18:33;13.20;;;4.63;;
80307;SDS011;69616;43.522;1.348;2023-06-26T10:21:03;10.95;;;4.72;;
80307;SDS011;69616;43.522;1.348;2023-06-26T10:23:31;14.65;;;5.00;;
80307;SDS011;69616;43.522;1.348;2023-06-26T10:25:58;10.03;;;4.03;;
80307;SDS011;69616;43.522;1.348;2023-06-26T10:28:25;14.13;;;4.85;;
80307;SDS011;69616;43.522;1.348;2023-06-26T10:30:53;11.95;;;4.70;;
80307;SDS011;69616;43.522;1.348;2023-06-26T10:33:20;10.90;;;4.35;;
80307;SDS011;69616;43.522;1.348;2023-06-26T10:35:47;9.83;;;4.60;;
80307;SDS011;69616;43.522;1.348;2023-06-26T10:38:12;13.20;;;4.15;;
80307;SDS011;69616;43.522;1.348;2023-06-26T10:40:45;9.80;;;3.93;;
80307;SDS011;69616;43.522;1.348;2023-06-26T10:43:14;12.25;;;4.97;;
80307;SDS011;69616;43.522;1.348;2023-06-26T10:45:46;13.00;;;4.50;;
80307;SDS011;69616;43.522;1.348;2023-06-26T10:48:17;12.00;;;4.47;;
80307;SDS011;69616;43.522;1.348;2023-06-26T10:50:42;12.50;;;4.43;;
80307;SDS011;69616;43.522;1.348;2023-06-26T10:56:00;15.77;;;5.75;;
80307;SDS011;69616;43.522;1.348;2023-06-26T10:58:33;12.07;;;5.17;;
80307;SDS011;69616;43.522;1.348;2023-06-26T11:03:37;10.77;;;5.00;;
80307;SDS011;69616;43.522;1.348;2023-06-26T11:06:12;9.63;;;4.57;;
80307;SDS011;69616;43.522;1.348;2023-06-26T11:09:09;11.52;;;4.85;;
80307;SDS011;69616;43.522;1.348;2023-06-26T11:14:23;10.43;;;4.60;;
80307;SDS011;69616;43.522;1.348;2023-06-26T11:16:49;14.43;;;5.00;;
80307;SDS011;69616;43.522;1.348;2023-06-26T11:19:16;9.75;;;4.78;;
80307;SDS011;69616;43.522;1.348;2023-06-26T11:21:43;11.37;;;5.40;;
80307;SDS011;69616;43.522;1.348;2023-06-26T11:24:09;12.52;;;4.80;;
80307;SDS011;69616;43.522;1.348;2023-06-26T11:26:39;10.23;;;5.13;;
80307;SDS011;69616;43.522;1.348;2023-06-26T11:29:09;12.55;;;5.05;;
80307;SDS011;69616;43.522;1.348;2023-06-26T11:31:35;12.50;;;5.10;;
80307;SDS011;69616;43.522;1.348;2023-06-26T11:34:06;11.88;;;5.38;;
80307;SDS011;69616;43.522;1.348;2023-06-26T11:36:35;11.32;;;5.40;;
80307;SDS011;69616;43.522;1.348;2023-06-26T11:39:02;12.40;;;5.45;;
80307;SDS011;69616;43.522;1.348;2023-06-26T11:41:31;14.45;;;5.10;;
80307;SDS011;69616;43.522;1.348;2023-06-26T11:44:05;11.57;;;4.90;;
80307;SDS011;69616;43.522;1.348;2023-06-26T11:46:32;11.15;;;5.00;;
80307;SDS011;69616;43.522;1.348;2023-06-26T11:48:59;10.80;;;5.40;;
80307;SDS011;69616;43.522;1.348;2023-06-26T11:51:27;10.52;;;4.70;;
80307;SDS011;69616;43.522;1.348;2023-06-26T11:53:53;9.97;;;4.80;;
80307;SDS011;69616;43.522;1.348;2023-06-26T11:56:18;11.88;;;4.80;;
80307;SDS011;69616;43.522;1.348;2023-06-26T11:59:00;12.50;;;5.30;;
80307;SDS011;69616;43.522;1.348;2023-06-26T12:01:43;10.02;;;4.35;;
80307;SDS011;69616;43.522;1.348;2023-06-26T12:04:10;7.50;;;4.30;;
80307;SDS011;69616;43.522;1.348;2023-06-26T12:06:37;9.30;;;3.88;;
80307;SDS011;69616;43.522;1.348;2023-06-26T12:09:05;10.73;;;4.13;;
80307;SDS011;69616;43.522;1.348;2023-06-26T12:11:32;8.60;;;4.17;;
80307;SDS011;69616;43.522;1.348;2023-06-26T12:13:59;8.93;;;4.15;;
80307;SDS011;69616;43.522;1.348;2023-06-26T12:16:26;8.40;;;4.20;;
80307;SDS011;69616;43.522;1.348;2023-06-26T12:18:57;9.93;;;4.70;;
80307;SDS011;69616;43.522;1.348;2023-06-26T12:24:01;10.77;;;4.53;;
80307;SDS011;69616;43.522;1.348;2023-06-26T12:26:27;14.40;;;4.78;;
80307;SDS011;69616;43.522;1.348;2023-06-26T12:29:09;9.47;;;4.77;;
80307;SDS011;69616;43.522;1.348;2023-06-26T12:31:41;11.63;;;5.53;;
80307;SDS011;69616;43.522;1.348;2023-06-26T12:34:09;11.20;;;4.78;;
80307;SDS011;69616;43.522;1.348;2023-06-26T12:36:42;12.50;;;5.13;;
80307;SDS011;69616;43.522;1.348;2023-06-26T12:39:12;8.55;;;4.60;;
80307;SDS011;69616;43.522;1.348;2023-06-26T12:42:12;10.60;;;5.40;;
80307;SDS011;69616;43.522;1.348;2023-06-26T12:44:29;12.13;;;4.80;;
80307;SDS011;69616;43.522;1.348;2023-06-26T12:46:59;9.82;;;4.80;;
80307;SDS011;69616;43.522;1.348;2023-06-26T12:49:45;12.07;;;5.40;;
80307;SDS011;69616;43.522;1.348;2023-06-26T12:52:15;9.77;;;4.57;;
80307;SDS011;69616;43.522;1.348;2023-06-26T12:54:42;12.23;;;5.30;;
80307;SDS011;69616;43.522;1.348;2023-06-26T12:57:08;10.35;;;5.15;;
80307;SDS011;69616;43.522;1.348;2023-06-26T12:59:36;11.85;;;5.38;;
80307;SDS011;69616;43.522;1.348;2023-06-26T13:02:02;11.82;;;5.43;;
80307;SDS011;69616;43.522;1.348;2023-06-26T13:04:28;9.93;;;5.00;;
80307;SDS011;69616;43.522;1.348;2023-06-26T13:06:54;12.20;;;5.30;;
80307;SDS011;69616;43.522;1.348;2023-06-26T13:09:23;9.63;;;5.20;;
80307;SDS011;69616;43.522;1.348;2023-06-26T13:11:50;10.15;;;5.60;;
80307;SDS011;69616;43.522;1.348;2023-06-26T13:14:16;10.17;;;5.37;;
80307;SDS011;69616;43.522;1.348;2023-06-26T13:16:41;11.52;;;5.50;;
80307;SDS011;69616;43.522;1.348;2023-06-26T13:19:07;10.97;;;4.90;;
80307;SDS011;69616;43.522;1.348;2023-06-26T13:21:33;10.23;;;5.43;;
80307;SDS011;69616;43.522;1.348;2023-06-26T13:23:59;11.13;;;5.40;;
80307;SDS011;69616;43.522;1.348;2023-06-26T13:26:25;10.82;;;5.07;;
80307;SDS011;69616;43.522;1.348;2023-06-26T13:28:51;11.93;;;5.23;;
80307;SDS011;69616;43.522;1.348;2023-06-26T13:31:17;11.98;;;5.30;;
80307;SDS011;69616;43.522;1.348;2023-06-26T13:33:43;12.30;;;5.25;;
80307;SDS011;69616;43.522;1.348;2023-06-26T13:36:11;10.00;;;5.00;;
80307;SDS011;69616;43.522;1.348;2023-06-26T13:38:36;9.40;;;4.65;;
80307;SDS011;69616;43.522;1.348;2023-06-26T13:41:02;11.83;;;5.30;;
80307;SDS011;69616;43.522;1.348;2023-06-26T13:43:28;14.47;;;5.57;;
80307;SDS011;69616;43.522;1.348;2023-06-26T13:45:54;11.05;;;5.05;;
80307;SDS011;69616;43.522;1.348;2023-06-26T13:48:21;13.00;;;5.32;;
80307;SDS011;69616;43.522;1.348;2023-06-26T13:50:47;11.55;;;5.00;;
80307;SDS011;69616;43.522;1.348;2023-06-26T13:53:13;11.33;;;5.43;;
80307;SDS011;69616;43.522;1.348;2023-06-26T13:55:39;11.60;;;4.60;;
80307;SDS011;69616;43.522;1.348;2023-06-26T13:58:05;10.77;;;5.28;;
80307;SDS011;69616;43.522;1.348;2023-06-26T14:00:31;11.37;;;5.00;;
80307;SDS011;69616;43.522;1.348;2023-06-26T14:03:00;11.02;;;4.78;;
80307;SDS011;69616;43.522;1.348;2023-06-26T14:05:26;9.88;;;4.90;;
80307;SDS011;69616;43.522;1.348;2023-06-26T14:07:51;9.40;;;4.93;;
80307;SDS011;69616;43.522;1.348;2023-06-26T14:10:18;10.70;;;4.70;;
80307;SDS011;69616;43.522;1.348;2023-06-26T14:12:44;12.37;;;4.67;;
80307;SDS011;69616;43.522;1.348;2023-06-26T14:15:10;10.60;;;4.80;;
80307;SDS011;69616;43.522;1.348;2023-06-26T14:17:35;9.53;;;4.20;;
80307;SDS011;69616;43.522;1.348;2023-06-26T14:20:00;12.67;;;5.03;;
80307;SDS011;69616;43.522;1.348;2023-06-26T14:22:26;10.95;;;4.55;;
80307;SDS011;69616;43.522;1.348;2023-06-26T14:24:51;11.23;;;4.80;;
80307;SDS011;69616;43.522;1.348;2023-06-26T14:27:17;11.07;;;4.77;;
80307;SDS011;69616;43.522;1.348;2023-06-26T14:29:42;8.53;;;4.80;;
80307;SDS011;69616;43.522;1.348;2023-06-26T14:32:07;12.00;;;4.87;;
80307;SDS011;69616;43.522;1.348;2023-06-26T14:34:33;9.63;;;4.38;;
80307;SDS011;69616;43.522;1.348;2023-06-26T14:36:58;12.03;;;4.40;;
80307;SDS011;69616;43.522;1.348;2023-06-26T14:39:24;12.50;;;4.10;;
80307;SDS011;69616;43.522;1.348;2023-06-26T14:41:49;11.05;;;4.40;;
80307;SDS011;69616;43.522;1.348;2023-06-26T14:44:15;10.27;;;4.47;;
80307;SDS011;69616;43.522;1.348;2023-06-26T14:46:40;10.87;;;4.43;;
80307;SDS011;69616;43.522;1.348;2023-06-26T14:49:15;9.60;;;4.18;;
80307;SDS011;69616;43.522;1.348;2023-06-26T14:51:41;10.40;;;4.53;;
80307;SDS011;69616;43.522;1.348;2023-06-26T14:54:06;8.93;;;4.20;;